Time;durP1;ratioP1;P1;durP2;ratioP2;P2;SDS_P1;SDS_P2;PMS_P1;PMS_P2;Temp;Humidity;BMP_temperature;BMP_pressure;BME280_temperature;BME280_humidity;BME280_pressure;Samples;Min_cycle;Max_cycle;Signal;HPM_P1;HPM_P2
2021/01/01 00:01:56;;;;;;;35.92;18.33;;;;;;;1.14;89.25;100040.69;5071878;28;20040;-70
2021/01/01 00:04:21;;;;;;;39.07;20.13;;;;;;;1.13;88.93;100039.88;5071617;28;20119;-70
2021/01/01 00:06:48;;;;;;;37.55;18.70;;;;;;;1.19;88.96;100047.25;5071324;28;20028;-70
2021/01/01 00:09:14;;;;;;;45.38;21.55;;;;;;;1.16;88.89;100050.13;5071617;28;20879;-65
2021/01/01 00:11:39;;;;;;;39.75;19.42;;;;;;;1.19;88.89;100049.88;5072524;28;20056;-65
2021/01/01 00:14:04;;;;;;;43.50;21.07;;;;;;;1.21;88.76;100047.16;5072645;28;20481;-66
2021/01/01 00:16:30;;;;;;;39.87;18.53;;;;;;;1.21;88.63;100053.25;5071195;28;20462;-65
2021/01/01 00:18:55;;;;;;;39.23;20.63;;;;;;;1.23;88.81;100051.34;5072247;28;20055;-66
2021/01/01 00:21:28;;;;;;;39.83;20.53;;;;;;;1.17;88.84;100049.19;5072370;28;20029;-65
2021/01/01 00:23:53;;;;;;;42.47;20.55;;;;;;;1.18;88.74;100048.22;5072420;28;20405;-65
2021/01/01 00:26:19;;;;;;;46.90;20.20;;;;;;;1.18;88.55;100050.03;5072017;28;20044;-65
2021/01/01 00:28:46;;;;;;;44.53;23.10;;;;;;;1.21;88.54;100047.16;5072282;28;20188;-66
2021/01/01 00:31:19;;;;;;;43.53;20.35;;;;;;;1.24;88.39;100053.03;5072137;28;20040;-65
2021/01/01 00:33:44;;;;;;;41.78;21.17;;;;;;;1.22;88.43;100052.31;5071950;28;20525;-66
2021/01/01 00:36:12;;;;;;;40.90;19.33;;;;;;;1.23;88.19;100059.22;5070899;28;20035;-66
2021/01/01 00:38:38;;;;;;;41.08;21.98;;;;;;;1.25;88.07;100049.44;5071961;28;20029;-66
2021/01/01 00:41:03;;;;;;;44.08;20.05;;;;;;;1.26;88.01;100056.38;5070644;28;20444;-65
2021/01/01 00:43:29;;;;;;;43.65;20.42;;;;;;;1.26;87.95;100060.78;5070895;28;20051;-65
2021/01/01 00:45:54;;;;;;;40.33;19.63;;;;;;;1.25;87.94;100059.94;5071694;28;20048;-65
2021/01/01 00:48:20;;;;;;;40.03;18.70;;;;;;;1.29;87.90;100049.19;5070665;28;20052;-65
2021/01/01 00:50:46;;;;;;;;;;;;;;;1.26;88.25;100058.16;5072219;28;20036;-66
2021/01/01 00:53:11;;;;;;;40.42;19.50;;;;;;;1.32;88.27;100059.47;5070741;28;19922;-65
2021/01/01 00:55:36;;;;;;;42.57;20.47;;;;;;;1.26;88.03;100059.00;5071592;28;20075;-65
2021/01/01 00:58:02;;;;;;;39.80;19.87;;;;;;;1.21;88.09;100047.97;5071584;28;20095;-65
2021/01/01 01:00:27;;;;;;;41.57;18.43;;;;;;;1.22;88.13;100052.31;5071619;28;20098;-65
2021/01/01 01:02:52;;;;;;;39.93;18.60;;;;;;;1.20;87.98;100051.59;5070486;28;20036;-65
2021/01/01 01:05:18;;;;;;;44.73;20.63;;;;;;;1.25;88.16;100059.13;5071474;28;20032;-66
2021/01/01 01:07:43;;;;;;;39.70;18.97;;;;;;;1.21;87.89;100049.78;5070462;28;20105;-66
2021/01/01 01:10:12;;;;;;;38.27;19.77;;;;;;;1.30;88.20;100056.97;5070481;28;20033;-66
2021/01/01 01:12:37;;;;;;;41.63;20.27;;;;;;;1.27;87.96;100051.94;5071489;28;20036;-66
2021/01/01 01:15:03;;;;;;;45.47;20.97;;;;;;;1.29;88.22;100049.19;5071467;28;20040;-66
2021/01/01 01:17:28;;;;;;;42.45;19.13;;;;;;;1.27;87.93;100052.78;5070056;28;20047;-66
2021/01/01 01:19:54;;;;;;;46.70;20.37;;;;;;;1.28;87.81;100061.50;5070383;28;20033;-66
2021/01/01 01:22:19;;;;;;;48.87;21.33;;;;;;;1.28;87.93;100061.50;5071432;28;20055;-66
2021/01/01 01:24:44;;;;;;;41.70;19.73;;;;;;;1.34;87.96;100063.66;5070454;28;20040;-66
2021/01/01 01:27:09;;;;;;;49.23;23.77;;;;;;;1.27;88.40;100054.56;5070137;28;20072;-66
2021/01/01 01:29:35;;;;;;;48.30;22.60;;;;;;;1.25;88.45;100065.22;5071343;28;20028;-66
2021/01/01 01:32:00;;;;;;;50.97;22.47;;;;;;;1.22;88.39;100062.81;5070274;28;20051;-66
2021/01/01 01:34:25;;;;;;;57.87;25.53;;;;;;;1.21;88.39;100063.75;5070286;28;20449;-66
2021/01/01 01:36:51;;;;;;;52.97;24.83;;;;;;;1.26;88.46;100064.25;5070112;28;20347;-66
2021/01/01 01:39:16;;;;;;;49.70;22.70;;;;;;;1.26;88.48;100063.41;5053536;28;20484;-66
2021/01/01 01:41:42;;;;;;;57.73;24.10;;;;;;;1.28;88.49;100072.00;5070257;28;20127;-66
2021/01/01 01:44:07;;;;;;;55.03;26.57;;;;;;;1.34;88.41;100070.72;5070163;28;20036;-66
2021/01/01 01:46:42;;;;;;;52.87;26.50;;;;;;;1.36;88.20;100077.53;5069738;28;20119;-66
2021/01/01 01:49:09;;;;;;;56.53;25.15;;;;;;;1.24;88.36;100073.19;5071088;28;20025;-66
2021/01/01 01:51:35;;;;;;;54.80;26.35;;;;;;;1.28;88.44;100072.00;5070120;28;20385;-66
2021/01/01 01:54:01;;;;;;;55.90;27.48;;;;;;;1.30;88.71;100080.63;5074061;28;20411;-66
2021/01/01 01:56:27;;;;;;;54.55;24.75;;;;;;;1.34;88.56;100078.59;5074852;28;20040;-66
2021/01/01 01:58:52;;;;;;;58.10;25.50;;;;;;;1.31;88.64;100073.56;5074179;28;20032;-66
2021/01/01 02:01:18;;;;;;;51.47;23.30;;;;;;;1.35;88.53;100088.16;5074285;28;20036;-66
2021/01/01 02:03:43;;;;;;;51.13;24.95;;;;;;;1.34;88.66;100074.19;5074990;28;20036;-66
2021/01/01 02:06:09;;;;;;;47.43;21.43;;;;;;;1.30;88.65;100079.78;5073737;28;20127;-66
2021/01/01 02:08:34;;;;;;;52.23;26.43;;;;;;;1.29;88.87;100078.97;5074985;28;20032;-66
2021/01/01 02:11:00;;;;;;;51.37;23.03;;;;;;;1.20;88.57;100083.13;5074001;28;20427;-66
2021/01/01 02:13:26;;;;;;;51.65;22.90;;;;;;;1.25;88.83;100086.25;5074852;28;20491;-66
2021/01/01 02:15:52;;;;;;;58.40;23.70;;;;;;;1.30;88.66;100083.25;5073457;28;20043;-67
2021/01/01 02:18:38;;;;;;;45.60;23.23;;;;;;;1.35;88.60;100090.78;5073607;28;20032;-67
2021/01/01 02:21:04;;;;;;;58.35;25.20;;;;;;;1.34;88.43;100086.50;5074637;28;20119;-67
2021/01/01 02:23:30;;;;;;;54.88;23.83;;;;;;;1.34;88.69;100091.75;5056952;28;20077;-66
2021/01/01 02:25:56;;;;;;;48.42;23.95;;;;;;;1.41;88.61;100090.31;5074268;28;20353;-66
2021/01/01 02:28:22;;;;;;;47.90;22.00;;;;;;;1.42;88.63;100091.97;5074261;28;20051;-67
2021/01/01 02:30:48;;;;;;;47.47;22.88;;;;;;;1.40;88.54;100094.72;5073458;28;20044;-67
2021/01/01 02:33:13;;;;;;;47.28;22.08;;;;;;;1.34;88.18;100089.97;5056798;28;20373;-67
2021/01/01 02:35:38;;;;;;;40.80;20.53;;;;;;;1.35;88.19;100090.78;5074226;28;20024;-67
2021/01/01 02:38:04;;;;;;;45.07;19.67;;;;;;;1.43;88.61;100096.31;5074403;28;20040;-67
2021/01/01 02:40:29;;;;;;;54.53;23.60;;;;;;;1.40;88.59;100099.16;5073271;28;20115;-67
2021/01/01 02:42:54;;;;;;;48.30;22.57;;;;;;;1.40;88.32;100096.53;5073245;28;20041;-67
2021/01/01 02:45:20;;;;;;;46.60;22.37;;;;;;;1.39;88.05;100097.50;5073207;28;20048;-67
2021/01/01 02:47:45;;;;;;;44.77;20.47;;;;;;;1.39;88.20;100094.88;5073990;28;20040;-67
2021/01/01 02:50:12;;;;;;;44.50;19.77;;;;;;;1.35;88.04;100090.78;5056480;28;20035;-67
2021/01/01 02:52:38;;;;;;;43.90;20.50;;;;;;;1.31;88.19;100094.59;5073249;28;20336;-67
2021/01/01 02:55:03;;;;;;;37.15;17.95;;;;;;;1.25;88.10;100090.66;5073098;28;20040;-67
2021/01/01 02:57:29;;;;;;;41.92;22.05;;;;;;;1.21;88.15;100083.97;5072819;28;20047;-67
2021/01/01 02:59:54;;;;;;;44.70;21.93;;;;;;;1.22;88.25;100085.66;5072980;28;20067;-67
2021/01/01 03:02:19;;;;;;;44.63;21.27;;;;;;;1.19;88.48;100089.34;5072956;28;20047;-67
2021/01/01 03:04:44;;;;;;;42.27;21.80;;;;;;;1.24;88.53;100089.84;5073584;28;20086;-67
2021/01/01 03:07:10;;;;;;;46.30;21.73;;;;;;;1.22;88.61;100083.84;5072573;28;20028;-67
2021/01/01 03:09:35;;;;;;;46.47;22.47;;;;;;;1.27;88.44;100084.34;5072809;28;20362;-67
2021/01/01 03:12:00;;;;;;;49.97;21.90;;;;;;;1.26;88.63;100093.19;5073624;28;20462;-67
2021/01/01 03:14:26;;;;;;;47.00;20.57;;;;;;;1.24;88.48;100084.59;5073636;28;20502;-67
2021/01/01 03:16:51;;;;;;;44.93;22.07;;;;;;;1.21;88.74;100084.81;5072396;28;20473;-67
2021/01/01 03:19:16;;;;;;;43.87;20.93;;;;;;;1.19;88.74;100084.06;5073500;28;20489;-67
2021/01/01 03:21:42;;;;;;;44.83;20.30;;;;;;;1.22;88.59;100080.41;5072616;28;20072;-67
2021/01/01 03:24:08;;;;;;;53.25;21.42;;;;;;;1.24;88.51;100086.34;5073546;28;20067;-67
2021/01/01 03:26:33;;;;;;;42.90;19.33;;;;;;;1.19;88.72;100091.13;5072974;28;20423;-67
2021/01/01 03:28:58;;;;;;;50.17;21.63;;;;;;;1.19;88.97;100085.88;5072382;28;20044;-67
2021/01/01 03:31:24;;;;;;;47.87;21.13;;;;;;;1.22;88.34;100086.50;5072448;28;20058;-67
2021/01/01 03:33:49;;;;;;;44.87;20.13;;;;;;;1.25;88.63;100090.66;5073247;28;20475;-67
2021/01/01 03:36:14;;;;;;;42.13;19.37;;;;;;;1.31;88.38;100086.72;5073053;28;20047;-67
2021/01/01 03:38:40;;;;;;;43.33;19.13;;;;;;;1.27;88.37;100083.50;5072235;28;20040;-67
2021/01/01 03:41:05;;;;;;;47.17;21.03;;;;;;;1.27;88.40;100100.13;5073176;28;20071;-67
2021/01/01 03:43:30;;;;;;;40.97;19.97;;;;;;;1.27;88.51;100089.59;5073128;28;20040;-67
2021/01/01 03:45:56;;;;;;;42.07;20.50;;;;;;;1.32;88.42;100085.78;5072845;28;20102;-67
2021/01/01 03:48:21;;;;;;;44.10;19.43;;;;;;;1.28;88.61;100093.06;5072038;28;20062;-67
2021/01/01 03:50:46;;;;;;;44.23;19.90;;;;;;;1.26;88.95;100087.94;5072062;28;20032;-67
2021/01/01 03:53:12;;;;;;;45.07;21.00;;;;;;;1.31;88.92;100090.22;5072950;28;20042;-67
2021/01/01 03:55:37;;;;;;;49.50;18.90;;;;;;;1.34;88.90;100087.34;5072696;28;20041;-67
2021/01/01 03:58:02;;;;;;;44.83;18.80;;;;;;;1.34;88.79;100099.66;5072598;28;20039;-67
2021/01/01 04:00:28;;;;;;;39.07;18.73;;;;;;;1.38;88.75;100085.28;5071720;28;20067;-67
2021/01/01 04:02:53;;;;;;;39.77;18.57;;;;;;;1.35;88.53;100086.34;5072776;28;20032;-67
2021/01/01 04:05:18;;;;;;;35.80;18.13;;;;;;;1.37;88.51;100094.16;5072496;28;20094;-67
2021/01/01 04:07:44;;;;;;;39.77;17.43;;;;;;;1.39;88.43;100090.44;5071509;28;20062;-67
2021/01/01 04:10:10;;;;;;;36.90;18.33;;;;;;;1.44;88.27;100090.06;5072609;28;20032;-67
2021/01/01 04:12:35;;;;;;;35.45;17.60;;;;;;;1.41;87.87;100090.31;5072477;28;20052;-67
2021/01/01 04:15:00;;;;;;;40.57;17.40;;;;;;;1.44;87.94;100095.34;5072024;28;20386;-67
2021/01/01 04:17:26;;;;;;;35.07;17.70;;;;;;;1.41;87.94;100096.41;5071310;28;20115;-67
2021/01/01 04:19:51;;;;;;;42.03;19.20;;;;;;;1.38;88.10;100096.66;5071324;28;20442;-67
2021/01/01 04:22:16;;;;;;;38.97;18.50;;;;;;;1.39;87.99;100097.50;5072485;28;20450;-67
2021/01/01 04:24:41;;;;;;;39.43;18.27;;;;;;;1.45;87.72;100102.25;5071384;28;20052;-67
2021/01/01 04:27:07;;;;;;;41.13;18.10;;;;;;;1.44;87.70;100090.06;5071872;28;20040;-67
2021/01/01 04:29:32;;;;;;;37.07;18.33;;;;;;;1.42;87.75;100095.44;5071210;28;20044;-67
2021/01/01 04:31:57;;;;;;;41.10;18.03;;;;;;;1.45;87.78;100102.25;5072185;28;20032;-66
2021/01/01 04:34:23;;;;;;;40.73;18.07;;;;;;;1.46;87.74;100096.88;5072132;28;20048;-67
2021/01/01 04:36:48;;;;;;;33.73;17.03;;;;;;;1.43;87.69;100104.19;5070829;28;20072;-66
2021/01/01 04:39:13;;;;;;;39.77;18.00;;;;;;;1.43;87.82;100098.94;5071090;28;20106;-66
2021/01/01 04:41:41;;;;;;;46.70;18.93;;;;;;;1.47;88.16;100100.34;5071782;28;20097;-66
2021/01/01 04:44:07;;;;;;;35.63;17.67;;;;;;;1.43;87.95;100104.19;5072005;28;20474;-66
2021/01/01 04:46:33;;;;;;;33.28;15.13;;;;;;;1.43;87.94;100110.28;5071627;28;20090;-66
2021/01/01 04:49:01;;;;;;;35.75;13.50;;;;;;;1.34;88.26;100111.00;5071866;28;20123;-66
2021/01/01 04:51:27;;;;;;;29.23;13.82;;;;;;;1.16;88.02;100107.97;5071756;28;20050;-66
2021/01/01 04:53:56;;;;;;;22.50;11.73;;;;;;;1.24;88.19;100116.13;5071853;28;20107;-66
2021/01/01 04:56:21;;;;;;;21.05;10.80;;;;;;;1.22;87.80;100118.03;5071288;28;20405;-66
2021/01/01 04:58:47;;;;;;;26.33;11.00;;;;;;;1.20;87.96;100116.50;5070585;28;20054;-66
2021/01/01 05:01:12;;;;;;;25.35;10.95;;;;;;;1.16;87.78;100110.63;5071666;28;20354;-66
2021/01/01 05:03:38;;;;;;;24.03;11.50;;;;;;;1.15;87.96;100116.00;5053843;28;20482;-66
2021/01/01 05:06:03;;;;;;;19.33;8.50;;;;;;;1.11;88.15;100118.03;5053666;28;20116;-66
2021/01/01 05:08:28;;;;;;;22.57;8.73;;;;;;;1.17;88.00;100119.34;5053885;28;20043;-66
2021/01/01 05:10:54;;;;;;;25.00;10.57;;;;;;;1.09;87.56;100117.31;5071339;28;20032;-66
2021/01/01 05:13:20;;;;;;;21.87;8.87;;;;;;;1.06;87.48;100122.81;5071706;28;20044;-71
2021/01/01 05:15:47;;;;;;;20.55;9.88;;;;;;;1.05;87.56;100113.22;5071260;28;20024;-71
2021/01/01 05:18:30;;;;;;;20.42;9.48;;;;;;;0.99;87.30;100126.84;5071473;28;20032;-71
2021/01/01 05:20:58;;;;;;;20.88;9.57;;;;;;;0.99;87.51;100127.69;5070536;28;20036;-71
2021/01/01 05:23:23;;;;;;;18.15;9.23;;;;;;;1.02;87.66;100122.19;5071290;28;20028;-71
2021/01/01 05:26:08;;;;;;;19.97;9.93;;;;;;;0.96;87.55;100129.69;5071061;28;20588;-71
2021/01/01 05:28:52;;;;;;;21.38;10.80;;;;;;;0.92;87.42;100125.66;5070955;28;20043;-71
2021/01/01 05:31:23;;;;;;;19.77;8.50;;;;;;;0.93;87.07;100122.03;5070369;28;20043;-71
2021/01/01 05:33:55;;;;;;;20.55;9.75;;;;;;;0.94;87.12;100129.00;5071159;28;20083;-71
2021/01/01 05:36:31;;;;;;;21.30;8.63;;;;;;;0.87;87.00;100127.75;5070745;28;20362;-71
2021/01/01 05:38:57;;;;;;;18.98;9.13;;;;;;;0.86;87.38;100131.34;5071230;28;20055;-71
2021/01/01 05:41:29;;;;;;;;;;;;;;;0.90;87.77;100138.88;5070555;28;20408;-71
2021/01/01 05:44:12;;;;;;;21.27;9.80;;;;;;;0.88;87.58;100134.69;5071151;28;19916;-71
2021/01/01 05:46:56;;;;;;;19.65;9.35;;;;;;;0.84;87.55;100134.94;5070819;28;20045;-71
2021/01/01 05:49:26;;;;;;;20.52;8.75;;;;;;;0.83;87.64;100142.94;5071182;28;20047;-71
2021/01/01 05:52:10;;;;;;;17.17;8.50;;;;;;;0.89;87.08;100139.84;5070216;28;20066;-71
2021/01/01 05:54:38;;;;;;;16.30;8.43;;;;;;;0.79;86.66;100141.47;5070893;28;20037;-71
2021/01/01 05:57:05;;;;;;;16.73;8.30;;;;;;;0.77;86.98;100144.25;5053147;28;20037;-71
2021/01/01 05:59:34;;;;;;;17.00;7.88;;;;;;;0.74;86.71;100141.81;5053308;28;20037;-71
2021/01/01 06:02:00;;;;;;;17.85;7.53;;;;;;;0.80;86.82;100146.63;5070946;28;20070;-71
2021/01/01 06:04:27;;;;;;;13.70;7.93;;;;;;;0.79;86.54;100146.72;5070931;28;20090;-71
2021/01/01 06:06:53;;;;;;;13.50;6.28;;;;;;;0.77;86.33;100154.75;5052975;28;20101;-71
2021/01/01 06:09:20;;;;;;;;;;;;;;;0.75;85.73;100145.28;5070309;28;20090;-71
2021/01/01 06:12:10;;;;;;;11.85;7.25;;;;;;;0.79;85.95;100152.00;5070704;28;19972;-71
2021/01/01 06:14:38;;;;;;;14.65;7.28;;;;;;;0.77;86.30;100154.75;5070606;28;20448;-71
2021/01/01 06:17:09;;;;;;;13.93;5.78;;;;;;;0.74;86.04;100156.75;5069638;28;20056;-71
2021/01/01 06:19:48;;;;;;;14.75;6.55;;;;;;;0.84;85.96;100165.63;5069557;28;20428;-71
2021/01/01 06:22:19;;;;;;;15.25;6.70;;;;;;;0.80;85.27;100172.06;5070881;28;20373;-71
2021/01/01 06:24:55;;;;;;;9.90;5.78;;;;;;;0.77;85.43;100156.50;5070966;28;20193;-71
2021/01/01 06:27:29;;;;;;;16.98;6.68;;;;;;;0.79;85.44;100163.31;5069562;28;20512;-71
2021/01/01 06:29:58;;;;;;;11.43;6.13;;;;;;;0.73;85.09;100163.81;5070661;28;20060;-71
2021/01/01 06:32:23;;;;;;;15.88;6.78;;;;;;;0.75;85.14;100171.56;5053034;28;20050;-71
2021/01/01 06:34:50;;;;;;;14.02;6.85;;;;;;;0.77;85.25;100175.78;5070624;28;20861;-71
2021/01/01 06:37:42;;;;;;;11.48;6.00;;;;;;;0.75;85.29;100177.66;5069388;28;20079;-71
2021/01/01 06:40:37;;;;;;;9.93;5.82;;;;;;;0.70;84.71;100174.53;5074150;28;20128;-71
2021/01/01 06:43:07;;;;;;;10.27;6.47;;;;;;;0.71;84.76;100170.13;5073426;28;20043;-71
2021/01/01 06:45:42;;;;;;;10.30;5.68;;;;;;;0.63;84.76;100183.81;5073105;28;20054;-70
2021/01/01 06:48:11;;;;;;;8.75;5.50;;;;;;;0.63;85.31;100178.56;5056532;28;20373;-71
2021/01/01 06:50:49;;;;;;;11.65;5.63;;;;;;;0.65;85.30;100181.91;5074132;28;20050;-71
2021/01/01 06:53:16;;;;;;;11.07;6.13;;;;;;;0.66;85.13;100182.78;5056487;28;20068;-71
2021/01/01 06:55:44;;;;;;;9.90;5.85;;;;;;;0.68;85.24;100186.97;5073967;28;20102;-71
2021/01/01 06:58:10;;;;;;;9.10;5.10;;;;;;;0.70;85.27;100185.03;5073041;28;20052;-71
2021/01/01 07:00:44;;;;;;;13.52;6.15;;;;;;;0.67;85.36;100187.91;5056242;28;20048;-71
2021/01/01 07:03:34;;;;;;;11.52;5.85;;;;;;;0.68;85.21;100192.22;5073715;28;20075;-71
2021/01/01 07:06:02;;;;;;;11.80;6.65;;;;;;;0.74;85.34;100202.25;5072580;28;20036;-71
2021/01/01 07:08:42;;;;;;;11.90;6.03;;;;;;;0.71;85.03;100197.22;5073689;28;20450;-71
2021/01/01 07:11:11;;;;;;;16.02;6.30;;;;;;;0.76;85.35;100204.78;5073720;28;20052;-71
2021/01/01 07:13:40;;;;;;;14.82;6.55;;;;;;;0.76;85.38;100202.97;5072645;28;20050;-71
2021/01/01 07:16:05;;;;;;;13.25;5.60;;;;;;;0.77;85.49;100206.44;5055907;28;20040;-71
2021/01/01 07:18:30;;;;;;;13.20;5.70;;;;;;;0.74;85.31;100202.25;5072517;28;20036;-71
2021/01/01 07:21:03;;;;;;;10.27;5.40;;;;;;;0.72;85.50;100209.41;5073610;28;20040;-71
2021/01/01 07:23:30;;;;;;;11.55;6.13;;;;;;;0.72;85.53;100208.56;5072708;28;20501;-71
2021/01/01 07:25:55;;;;;;;;;;;;;;;0.73;85.57;100211.09;5072786;28;20033;-71
2021/01/01 07:28:23;;;;;;;10.77;5.97;;;;;;;0.69;85.44;100211.44;5073263;28;20238;-71
2021/01/01 07:30:48;;;;;;;10.60;5.53;;;;;;;0.71;85.41;100217.41;5073409;28;20034;-71
2021/01/01 07:33:24;;;;;;;13.23;6.60;;;;;;;0.71;85.47;100220.88;5073434;28;20032;-71
2021/01/01 07:35:57;;;;;;;12.30;6.70;;;;;;;0.72;85.56;100216.47;5073150;28;20044;-71
2021/01/01 07:38:24;;;;;;;12.05;5.45;;;;;;;0.73;85.62;100226.03;5072160;28;20458;-71
2021/01/01 07:40:50;;;;;;;12.65;6.38;;;;;;;0.72;85.60;100224.34;5073146;28;20035;-71
2021/01/01 07:43:16;;;;;;;13.50;6.15;;;;;;;0.71;85.15;100226.13;5073284;28;20362;-71
2021/01/01 07:45:42;;;;;;;11.75;5.65;;;;;;;0.75;85.50;100224.97;5072924;28;20044;-71
2021/01/01 07:48:08;;;;;;;14.93;6.50;;;;;;;0.76;85.10;100225.81;5073041;28;20193;-71
2021/01/01 07:50:35;;;;;;;13.63;6.70;;;;;;;0.76;85.14;100224.00;5072151;28;20028;-71
2021/01/01 07:53:03;;;;;;;15.18;6.25;;;;;;;0.75;85.02;100230.22;5072852;28;20036;-71
2021/01/01 07:55:29;;;;;;;11.95;6.93;;;;;;;0.69;84.98;100228.03;5072613;28;20036;-71
2021/01/01 07:58:04;;;;;;;;;;;;;;;0.76;85.10;100234.53;5073106;28;20119;-71
2021/01/01 08:00:30;;;;;;;11.27;6.13;;;;;;;0.73;84.75;100239.19;5071726;28;20273;-71
2021/01/01 08:02:55;;;;;;;12.63;6.32;;;;;;;0.71;85.09;100236.66;5072781;28;20086;-71
2021/01/01 08:05:21;;;;;;;11.85;6.38;;;;;;;0.75;85.48;100238.09;5071758;28;20405;-71
2021/01/01 08:07:47;;;;;;;13.32;6.30;;;;;;;0.77;85.34;100243.22;5072275;28;20392;-71
2021/01/01 08:10:12;;;;;;;12.80;6.33;;;;;;;0.77;84.93;100251.13;5072649;28;20036;-71
2021/01/01 08:12:38;;;;;;;12.53;6.63;;;;;;;0.80;84.65;100246.50;5072681;28;20314;-71
2021/01/01 08:15:04;;;;;;;11.98;7.10;;;;;;;0.79;84.54;100257.94;5072585;28;20040;-71
2021/01/01 08:17:30;;;;;;;11.20;6.13;;;;;;;0.77;84.83;100251.97;5072117;28;20071;-71
2021/01/01 08:19:58;;;;;;;12.30;6.13;;;;;;;0.83;84.88;100259.41;5072312;28;20060;-71
2021/01/01 08:22:30;;;;;;;11.48;6.75;;;;;;;0.88;84.74;100255.59;5072257;28;20465;-70
2021/01/01 08:24:57;;;;;;;14.35;6.75;;;;;;;0.89;84.33;100252.88;5038158;28;20067;-71
2021/01/01 08:27:24;;;;;;;11.75;5.85;;;;;;;0.92;84.32;100259.69;5072063;28;20454;-71
2021/01/01 08:29:50;;;;;;;12.02;5.82;;;;;;;0.96;84.73;100258.50;5071241;28;20370;-71
2021/01/01 08:32:17;;;;;;;17.55;7.75;;;;;;;1.02;84.52;100260.69;5072241;28;20036;-71
2021/01/01 08:34:47;;;;;;;15.90;7.80;;;;;;;0.96;84.22;100253.22;5072237;28;20135;-71
2021/01/01 08:37:27;;;;;;;14.60;7.78;;;;;;;1.01;84.47;100272.16;5070749;28;20454;-71
2021/01/01 08:40:09;;;;;;;13.63;7.90;;;;;;;0.93;84.26;100264.81;5072025;28;20549;-71
2021/01/01 08:42:36;;;;;;;17.90;9.35;;;;;;;0.98;84.28;100267.97;5071112;28;20437;-71
2021/01/01 08:45:07;;;;;;;14.75;7.75;;;;;;;0.98;84.03;100267.09;5071994;28;20068;-71
2021/01/01 08:47:51;;;;;;;14.95;7.50;;;;;;;0.95;83.81;100267.34;5071583;28;20028;-71
2021/01/01 08:50:27;;;;;;;13.70;7.28;;;;;;;1.06;83.74;100270.03;5071880;28;20075;-71
2021/01/01 08:53:01;;;;;;;13.70;7.03;;;;;;;1.16;83.71;100275.44;5070857;28;20033;-71
2021/01/01 08:55:27;;;;;;;15.40;7.60;;;;;;;1.13;83.10;100286.19;5071645;28;20093;-71
2021/01/01 08:58:09;;;;;;;12.35;6.30;;;;;;;1.16;82.88;100286.78;5071396;28;20296;-71
2021/01/01 09:00:36;;;;;;;12.27;6.88;;;;;;;1.09;83.35;100287.38;5071618;28;20058;-71
2021/01/01 09:03:03;;;;;;;11.27;5.97;;;;;;;1.07;83.53;100295.34;5071453;28;20047;-71
2021/01/01 09:05:29;;;;;;;12.18;6.72;;;;;;;1.11;83.28;100293.34;5071564;28;20040;-71
2021/01/01 09:08:10;;;;;;;13.52;7.05;;;;;;;1.17;83.14;100292.88;5070491;28;20036;-71
2021/01/01 09:10:37;;;;;;;16.38;7.22;;;;;;;1.04;83.79;100303.47;5071455;28;20047;-71
2021/01/01 09:13:16;;;;;;;15.43;7.45;;;;;;;1.01;83.76;100309.81;5071591;28;20036;-71
2021/01/01 09:15:42;;;;;;;15.77;6.60;;;;;;;1.05;83.52;100305.13;5071349;28;20040;-71
2021/01/01 09:18:08;;;;;;;11.95;5.93;;;;;;;1.09;83.68;100309.22;5071447;28;20461;-71
2021/01/01 09:20:35;;;;;;;15.00;7.25;;;;;;;1.08;83.67;100312.81;5071321;28;20040;-71
2021/01/01 09:23:01;;;;;;;15.15;7.28;;;;;;;1.10;84.12;100308.28;5070325;28;20129;-71
2021/01/01 09:25:28;;;;;;;15.90;7.93;;;;;;;1.13;83.96;100307.22;5071246;28;20039;-71
2021/01/01 09:27:54;;;;;;;;;;;;;;;1.12;83.83;100306.38;5070678;28;20036;-71
2021/01/01 09:30:24;;;;;;;14.32;6.97;;;;;;;1.11;84.21;100314.38;5071294;28;20334;-71
2021/01/01 09:32:51;;;;;;;14.90;6.78;;;;;;;1.08;84.03;100315.44;5071401;28;20387;-71
2021/01/01 09:35:16;;;;;;;14.40;8.32;;;;;;;1.16;84.12;100315.72;5071128;28;20043;-71
2021/01/01 09:37:53;;;;;;;15.83;7.30;;;;;;;1.19;84.51;100323.38;5070265;28;20036;-71
2021/01/01 09:40:20;;;;;;;16.38;7.43;;;;;;;1.27;84.34;100328.09;5070141;28;20032;-71
2021/01/01 09:42:45;;;;;;;16.00;7.75;;;;;;;1.13;84.11;100334.34;5070251;28;20359;-71
2021/01/01 09:45:12;;;;;;;14.80;6.40;;;;;;;1.17;84.61;100330.56;5071201;28;20051;-71
2021/01/01 09:47:37;;;;;;;;;;;;;;;1.24;84.62;100333.56;5071409;28;20098;-71
2021/01/01 09:50:03;;;;;;;;;;;;;;;1.22;84.45;100328.44;5070487;28;20300;-71
2021/01/01 09:52:28;;;;;;;15.38;7.70;;;;;;;1.19;84.78;100333.06;5070186;28;20003;-71
2021/01/01 09:54:54;;;;;;;13.27;6.83;;;;;;;1.12;84.18;100335.28;5071023;28;20508;-71
2021/01/01 09:57:19;;;;;;;14.50;7.03;;;;;;;1.16;84.35;100330.66;5070792;28;20036;-71
2021/01/01 09:59:44;;;;;;;18.70;8.40;;;;;;;1.09;84.13;100332.06;5071095;28;20041;-71
2021/01/01 10:02:10;;;;;;;16.33;8.70;;;;;;;1.06;84.54;100335.75;5070119;28;20039;-71
2021/01/01 10:04:35;;;;;;;16.03;7.70;;;;;;;1.10;84.38;100331.97;5069818;28;20040;-71
2021/01/01 10:07:00;;;;;;;13.87;6.80;;;;;;;1.16;84.52;100328.03;5069833;28;20037;-71
2021/01/01 10:09:25;;;;;;;16.20;8.30;;;;;;;1.13;84.43;100329.09;5070058;28;20090;-71
2021/01/01 10:11:51;;;;;;;15.33;8.30;;;;;;;1.07;84.10;100324.28;5070991;28;20032;-71
2021/01/01 10:14:16;;;;;;;22.50;8.73;;;;;;;1.11;84.47;100327.53;5073562;28;20391;-71
2021/01/01 10:16:42;;;;;;;15.60;8.07;;;;;;;1.16;84.21;100333.28;5074600;28;20043;-71
2021/01/01 10:19:08;;;;;;;14.77;7.38;;;;;;;1.18;84.37;100334.84;5074612;28;20035;-71
2021/01/01 10:21:33;;;;;;;15.40;7.50;;;;;;;1.28;84.64;100329.75;5074799;28;20371;-71
2021/01/01 10:23:58;;;;;;;16.03;8.27;;;;;;;1.31;84.48;100331.31;5074718;28;20043;-71
2021/01/01 10:26:23;;;;;;;15.20;7.50;;;;;;;1.37;83.64;100334.34;5074326;28;20050;-71
2021/01/01 10:28:49;;;;;;;17.27;8.00;;;;;;;1.45;83.81;100328.50;5074681;28;20425;-71
2021/01/01 10:31:21;;;;;;;14.60;7.70;;;;;;;1.43;83.82;100340.97;5074556;28;20446;-71
2021/01/01 10:33:46;;;;;;;15.60;8.73;;;;;;;1.53;84.13;100335.84;5073359;28;20068;-71
2021/01/01 10:36:12;;;;;;;15.17;7.70;;;;;;;1.61;83.54;100342.19;5074180;28;20067;-71
2021/01/01 10:38:37;;;;;;;13.35;7.63;;;;;;;1.61;83.38;100334.28;5073416;28;20080;-71
2021/01/01 10:41:02;;;;;;;17.17;8.10;;;;;;;1.57;83.22;100332.00;5074338;28;20059;-71
2021/01/01 10:43:28;;;;;;;17.02;8.75;;;;;;;1.65;83.68;100334.91;5073328;28;20052;-71
2021/01/01 10:45:53;;;;;;;15.20;8.43;;;;;;;1.63;83.78;100332.38;5074004;28;20044;-71
2021/01/01 10:48:18;;;;;;;19.33;8.13;;;;;;;1.65;83.80;100334.91;5073096;28;20040;-71
2021/01/01 10:50:44;;;;;;;21.13;10.03;;;;;;;1.56;83.67;100336.44;5074173;28;20040;-71
2021/01/01 10:53:09;;;;;;;21.97;10.77;;;;;;;1.56;83.96;100336.44;5074163;28;20032;-71
2021/01/01 10:55:34;;;;;;;22.03;8.17;;;;;;;1.62;84.07;100335.16;5073918;28;20044;-71
2021/01/01 10:57:59;;;;;;;24.83;11.37;;;;;;;1.58;84.37;100336.34;5072942;28;20044;-71
2021/01/01 11:00:25;;;;;;;26.23;13.03;;;;;;;1.51;85.14;100338.56;5073928;28;20347;-71
2021/01/01 11:02:50;;;;;;;23.27;12.47;;;;;;;1.46;85.17;100330.19;5072920;28;20393;-71
2021/01/01 11:05:15;;;;;;;31.13;13.00;;;;;;;1.46;85.46;100328.41;5072887;28;20382;-71
2021/01/01 11:07:42;;;;;;;32.30;14.93;;;;;;;1.43;85.72;100327.81;5073566;28;20381;-71
2021/01/01 11:10:08;;;;;;;40.20;17.48;;;;;;;1.45;85.96;100326.72;5073693;28;20093;-71
2021/01/01 11:12:34;;;;;;;31.83;13.17;;;;;;;1.44;85.64;100329.47;5073748;28;20036;-71
2021/01/01 11:15:23;;;;;;;33.45;14.27;;;;;;;1.52;86.03;100332.34;5072853;28;20044;-71
2021/01/01 12:26:33;;;;;;;32.90;14.52;;;;;;;1.87;86.64;100297.25;5072061;28;20044;-71
2021/01/01 12:28:59;;;;;;;33.92;16.35;;;;;;;1.85;86.56;100304.44;5071373;28;20106;-71
2021/01/01 12:31:25;;;;;;;37.55;18.23;;;;;;;1.95;86.21;100300.16;5072190;28;20028;-71
2021/01/01 12:33:51;;;;;;;31.65;15.23;;;;;;;1.99;86.44;100298.97;5072213;28;20086;-71
2021/01/01 12:36:16;;;;;;;33.78;14.25;;;;;;;2.03;86.17;100300.41;5070515;28;20036;-71